Terminal Aerodrome Forecast
Issued by NWS Shreveport, LA

Home | Current Version | Previous Version | Text Only | Print | Product List | Glossary On
Versions: 1 2 3 4 5 6 7 8 9 10 11 12 13
000
FTUS44 KSHV 171700
TAFTYR
TAF
KTYR 171722Z 1718/1818 14010KT P6SM SCT050 OVC090
     FM180000 VRB04KT P6SM BKN040 BKN250
     FM181300 03006KT P6SM SKC=

USA.gov is the U.S. government's official web portal to all federal, state and local government web resources and services.